createdAt,value
2018-09-08T00:01:25.749Z,77.54
2018-09-08T00:04:30.686Z,76.37
2018-09-08T00:07:35.644Z,76.40
2018-09-08T00:10:40.620Z,76.68
2018-09-08T00:13:45.545Z,76.78
2018-09-08T00:16:56.371Z,76.23
2018-09-08T00:20:07.042Z,77.03
2018-09-08T00:23:17.612Z,76.07
2018-09-08T00:26:28.421Z,76.26
2018-09-08T00:29:53.517Z,76.16
2018-09-08T00:32:58.501Z,76.51
2018-09-08T00:36:03.457Z,76.00
2018-09-08T00:39:09.185Z,75.75
2018-09-08T00:42:14.139Z,76.23
2018-09-08T00:45:19.133Z,76.79
2018-09-08T00:48:24.053Z,76.39
2018-09-08T00:51:28.989Z,75.64
2018-09-08T00:54:33.941Z,76.44
2018-09-08T00:57:38.981Z,75.95
2018-09-08T01:00:43.928Z,76.07
2018-09-08T01:03:48.873Z,76.83
2018-09-08T01:06:53.808Z,76.32
2018-09-08T01:09:59.802Z,75.56
2018-09-08T01:13:04.895Z,75.67
2018-09-08T01:16:09.854Z,75.46
2018-09-08T01:19:15.381Z,75.63
2018-09-08T01:22:20.344Z,75.29
2018-09-08T01:25:25.298Z,75.98
2018-09-08T01:28:30.273Z,76.11
2018-09-08T01:31:35.226Z,75.92
2018-09-08T01:34:40.137Z,74.68
2018-09-08T01:37:45.295Z,75.37
2018-09-08T01:40:50.341Z,75.26
2018-09-08T01:43:55.289Z,74.74
2018-09-08T01:47:00.210Z,75.09
2018-09-08T01:50:05.324Z,76.04
2018-09-08T01:53:10.261Z,75.02
2018-09-08T01:56:15.181Z,75.83
2018-09-08T01:59:20.112Z,75.74
2018-09-08T02:02:25.041Z,74.51
2018-09-08T02:05:29.978Z,74.87
2018-09-08T02:08:34.900Z,74.92
2018-09-08T02:11:39.839Z,74.92
2018-09-08T02:14:44.748Z,74.07
2018-09-08T02:17:49.694Z,74.26
2018-09-08T02:20:54.654Z,75.00
2018-09-08T02:23:59.561Z,75.11
2018-09-08T02:27:04.757Z,74.33
2018-09-08T02:30:09.693Z,74.89
2018-09-08T02:33:14.601Z,75.01
2018-09-08T02:36:19.539Z,74.41
2018-09-08T02:39:24.449Z,75.17
2018-09-08T02:42:29.387Z,73.92
2018-09-08T02:45:34.325Z,73.86
2018-09-08T02:48:39.265Z,74.49
2018-09-08T02:51:43.276Z,75.25
2018-09-08T02:54:47.287Z,74.23
2018-09-08T02:57:51.353Z,73.94
2018-09-08T03:00:55.367Z,73.83
2018-09-08T03:03:59.364Z,74.63
2018-09-08T03:07:09.132Z,73.81
2018-09-08T03:10:13.556Z,74.27
2018-09-08T03:13:17.571Z,74.93
2018-09-08T03:16:21.592Z,74.80
2018-09-08T03:19:25.627Z,74.18
2018-09-08T03:22:29.916Z,74.04
2018-09-08T03:25:33.917Z,74.16
2018-09-08T03:28:37.953Z,74.08
2018-09-08T03:31:42.052Z,73.85
2018-09-08T03:34:46.057Z,74.74
2018-09-08T03:37:50.069Z,74.39
2018-09-08T03:40:54.108Z,74.33
2018-09-08T03:43:58.317Z,74.10
2018-09-08T03:47:02.345Z,74.08
2018-09-08T03:50:06.359Z,73.59
2018-09-08T03:53:10.389Z,74.01
2018-09-08T03:56:14.405Z,74.14
2018-09-08T03:59:18.415Z,73.43
2018-09-08T04:02:22.437Z,73.38
2018-09-08T04:05:27.368Z,73.54
2018-09-08T04:08:32.305Z,74.47
2018-09-08T04:11:37.418Z,73.79
2018-09-08T04:14:42.332Z,74.44
2018-09-08T04:17:47.265Z,73.46
2018-09-08T04:20:52.179Z,74.39
2018-09-08T04:23:57.099Z,73.64
2018-09-08T04:27:02.066Z,75.16
2018-09-08T04:30:06.993Z,74.31
2018-09-08T04:33:11.909Z,74.30
2018-09-08T04:36:16.842Z,73.86
2018-09-08T04:39:21.769Z,74.57
2018-09-08T04:42:26.677Z,73.57
2018-09-08T04:45:31.605Z,74.47
2018-09-08T04:48:43.870Z,73.81
2018-09-08T04:51:48.802Z,74.78
2018-09-08T04:54:53.750Z,75.14
2018-09-08T04:57:58.662Z,76.15
2018-09-08T05:01:03.613Z,76.05
2018-09-08T05:04:08.577Z,75.30
2018-09-08T05:07:13.531Z,74.61
2018-09-08T05:10:18.471Z,75.49
2018-09-08T05:13:23.426Z,74.42
2018-09-08T05:16:28.364Z,75.38
2018-09-08T05:19:33.328Z,75.97
2018-09-08T05:22:38.278Z,76.23
2018-09-08T05:25:43.228Z,75.86
2018-09-08T05:28:48.308Z,75.07
2018-09-08T05:31:53.225Z,75.81
2018-09-08T05:34:58.224Z,74.91
2018-09-08T05:38:03.166Z,75.67
2018-09-08T05:41:08.091Z,76.25
2018-09-08T05:44:13.017Z,76.06
2018-09-08T05:47:17.967Z,75.76
2018-09-08T05:50:22.920Z,75.54
2018-09-08T05:53:27.883Z,74.49
2018-09-08T05:56:32.816Z,74.57
2018-09-08T05:59:37.790Z,74.20
2018-09-08T06:02:42.746Z,75.34
2018-09-08T06:05:47.657Z,74.49
2018-09-08T06:08:52.633Z,73.97
2018-09-08T06:11:57.734Z,74.16
2018-09-08T06:15:02.697Z,75.06
2018-09-08T06:18:07.690Z,74.44
2018-09-08T06:21:12.561Z,75.60
2018-09-08T06:24:17.533Z,75.29
2018-09-08T06:27:22.455Z,76.73
2018-09-08T06:30:27.380Z,76.42
2018-09-08T06:33:32.370Z,77.37
2018-09-08T06:36:37.249Z,76.29
2018-09-08T06:39:42.189Z,74.97
2018-09-08T06:42:47.107Z,72.64
2018-09-08T06:45:52.037Z,71.45
2018-09-08T06:48:56.978Z,71.76
2018-09-08T06:52:01.931Z,71.40
2018-09-08T06:55:06.885Z,71.53
2018-09-08T06:58:11.810Z,69.75
2018-09-08T07:01:16.768Z,70.33
2018-09-08T07:04:21.697Z,68.75
2018-09-08T07:07:26.624Z,67.22
2018-09-08T07:10:31.520Z,69.46
2018-09-08T07:13:36.949Z,69.00
2018-09-08T07:16:41.846Z,67.17
2018-09-08T07:19:46.760Z,67.95
2018-09-08T07:22:51.654Z,68.01
2018-09-08T07:25:56.641Z,64.38
2018-09-08T07:29:01.573Z,64.26
2018-09-08T07:32:06.489Z,62.11
2018-09-08T07:35:11.397Z,61.09
2018-09-08T07:38:16.297Z,59.67
2018-09-08T07:41:21.215Z,57.52
2018-09-08T07:44:26.162Z,54.24
2018-09-08T07:47:31.079Z,51.76
2018-09-08T07:50:36.009Z,52.23
2018-09-08T07:53:41.056Z,49.92
2018-09-08T07:56:45.937Z,48.17
2018-09-08T07:59:50.864Z,45.12
2018-09-08T08:02:55.788Z,44.29
2018-09-08T08:06:00.718Z,43.25
2018-09-08T08:09:06.473Z,42.37
2018-09-08T08:12:11.556Z,43.62
2018-09-08T08:15:16.484Z,41.59
2018-09-08T08:18:21.401Z,41.08
2018-09-08T08:21:26.321Z,40.55
2018-09-08T08:24:31.269Z,39.54
2018-09-08T08:27:36.186Z,39.27
2018-09-08T08:30:41.140Z,35.97
2018-09-08T08:33:46.061Z,38.75
2018-09-08T08:36:51.392Z,37.14
2018-09-08T08:39:56.377Z,38.67
2018-09-08T08:43:02.128Z,38.38
2018-09-08T08:46:07.054Z,37.30
2018-09-08T08:49:12.013Z,37.95
2018-09-08T08:53:27.577Z,37.19
2018-09-08T08:56:32.552Z,37.11
2018-09-08T08:59:37.494Z,35.99
2018-09-08T09:02:42.457Z,34.83
2018-09-08T09:05:47.398Z,36.38
2018-09-08T09:08:52.345Z,35.57
2018-09-08T09:11:57.318Z,35.11
2018-09-08T09:15:02.600Z,35.12
2018-09-08T09:18:07.219Z,36.13
2018-09-08T09:21:23.749Z,34.93
2018-09-08T09:25:04.888Z,35.59
2018-09-08T09:28:09.827Z,37.93
2018-09-08T09:31:14.777Z,35.81
2018-09-08T09:34:19.705Z,35.53
2018-09-08T09:37:24.745Z,35.97
2018-09-08T09:40:29.610Z,35.83
2018-09-08T09:43:35.237Z,36.05
2018-09-08T09:46:40.536Z,36.78
2018-09-08T09:49:45.489Z,34.92
2018-09-08T09:52:50.435Z,34.47
2018-09-08T09:55:55.381Z,36.66
2018-09-08T09:59:00.327Z,35.35
2018-09-08T10:02:39.709Z,34.86
2018-09-08T10:05:44.653Z,35.35
2018-09-08T10:08:49.576Z,32.95
2018-09-08T10:11:54.653Z,33.96
2018-09-08T10:14:59.647Z,34.25
2018-09-08T10:18:04.669Z,34.20
2018-09-08T10:21:09.633Z,34.50
2018-09-08T10:24:14.571Z,34.33
2018-09-08T10:27:19.705Z,34.23
2018-09-08T10:30:24.659Z,35.32
2018-09-08T10:33:29.609Z,32.99
2018-09-08T10:36:34.590Z,33.16
2018-09-08T10:39:39.544Z,33.28
2018-09-08T10:42:44.497Z,33.39
2018-09-08T10:45:49.429Z,32.76
2018-09-08T10:48:54.378Z,32.74
2018-09-08T10:52:06.545Z,33.92
2018-09-08T10:55:11.512Z,33.82
2018-09-08T10:58:16.434Z,33.01
2018-09-08T11:01:21.347Z,32.22
2018-09-08T11:04:26.281Z,32.22
2018-09-08T11:07:31.644Z,32.00
2018-09-08T11:10:36.561Z,33.50
2018-09-08T11:13:41.490Z,32.20
2018-09-08T11:16:46.596Z,32.11
2018-09-08T11:19:51.555Z,32.31
2018-09-08T11:22:56.513Z,31.36
2018-09-08T11:26:01.431Z,32.57
2018-09-08T11:29:06.390Z,32.72
2018-09-08T11:32:11.316Z,34.13
2018-09-08T11:35:16.253Z,32.78
2018-09-08T11:38:21.244Z,31.57
2018-09-08T11:41:26.094Z,31.00
2018-09-08T11:44:31.034Z,32.61
2018-09-08T11:47:35.952Z,32.83
2018-09-08T11:50:40.857Z,32.62
2018-09-08T11:53:45.806Z,31.56
2018-09-08T11:56:50.732Z,33.68
2018-09-08T11:59:55.677Z,34.37
2018-09-08T12:03:00.798Z,34.18
2018-09-08T12:06:05.705Z,33.40
2018-09-08T12:09:11.578Z,32.65
2018-09-08T12:12:16.525Z,34.67
2018-09-08T12:15:21.472Z,33.95
2018-09-08T12:18:26.425Z,33.85
2018-09-08T12:21:31.352Z,33.76
2018-09-08T12:24:36.290Z,33.21
2018-09-08T12:27:41.252Z,33.43
2018-09-08T12:30:46.251Z,33.25
2018-09-08T12:33:51.188Z,35.61
2018-09-08T12:36:56.116Z,34.73
2018-09-08T12:40:01.089Z,33.94
2018-09-08T12:43:06.069Z,33.79
2018-09-08T12:46:11.036Z,35.41
2018-09-08T12:49:15.997Z,35.79
2018-09-08T12:52:20.946Z,35.35
2018-09-08T12:55:25.925Z,35.79
2018-09-08T12:58:30.902Z,37.19
2018-09-08T13:01:35.824Z,34.58
2018-09-08T13:04:40.738Z,35.03
2018-09-08T13:07:45.706Z,35.74
2018-09-08T13:10:50.649Z,35.59
2018-09-08T13:13:55.567Z,36.83
2018-09-08T13:17:00.664Z,36.22
2018-09-08T13:20:05.669Z,35.48
2018-09-08T13:23:10.573Z,35.90
2018-09-08T13:26:15.537Z,37.48
2018-09-08T13:29:20.464Z,35.97
2018-09-08T13:32:25.405Z,35.46
2018-09-08T13:35:30.341Z,35.25
2018-09-08T13:38:35.259Z,36.59
2018-09-08T13:41:40.212Z,36.41
2018-09-08T13:44:45.142Z,36.80
2018-09-08T13:47:50.041Z,35.47
2018-09-08T13:50:54.969Z,36.92
2018-09-08T13:53:59.997Z,36.13
2018-09-08T13:57:05.030Z,35.11
2018-09-08T14:00:09.949Z,36.11
2018-09-08T14:03:14.898Z,35.05
2018-09-08T14:06:19.833Z,34.72
2018-09-08T14:09:24.786Z,36.37
2018-09-08T14:12:29.721Z,37.50
2018-09-08T14:15:34.654Z,36.75
2018-09-08T14:18:39.581Z,37.82
2018-09-08T14:21:44.524Z,35.97
2018-09-08T14:24:49.489Z,35.39
2018-09-08T14:27:54.413Z,34.54
2018-09-08T14:30:59.349Z,34.62
2018-09-08T14:34:04.373Z,35.48
2018-09-08T14:37:09.314Z,35.25
2018-09-08T14:40:14.346Z,35.30
2018-09-08T14:43:19.298Z,35.42
2018-09-08T14:46:24.228Z,36.38
2018-09-08T14:49:29.193Z,36.10
2018-09-08T14:52:34.123Z,36.38
2018-09-08T14:55:39.131Z,36.65
2018-09-08T14:58:44.038Z,36.51
2018-09-08T15:01:48.961Z,37.05
2018-09-08T15:04:53.953Z,36.74
2018-09-08T15:07:58.861Z,36.57
2018-09-08T15:11:04.068Z,36.60
2018-09-08T15:14:09.117Z,35.92
2018-09-08T15:17:14.028Z,37.89
2018-09-08T15:20:18.993Z,37.67
2018-09-08T15:23:24.029Z,37.47
2018-09-08T15:26:28.963Z,37.29
2018-09-08T15:29:33.876Z,37.75
2018-09-08T15:32:38.932Z,37.61
2018-09-08T15:35:43.835Z,37.17
2018-09-08T15:38:48.777Z,37.29
2018-09-08T15:41:53.725Z,37.51
2018-09-08T15:44:58.629Z,38.44
2018-09-08T15:48:03.579Z,37.79
2018-09-08T15:51:08.505Z,38.45
2018-09-08T15:54:13.795Z,38.52
2018-09-08T15:57:18.741Z,38.11
2018-09-08T16:00:23.678Z,38.87
2018-09-08T16:03:28.605Z,39.88
2018-09-08T16:06:33.555Z,39.43
2018-09-08T16:09:38.474Z,39.19
2018-09-08T16:12:43.425Z,40.15
2018-09-08T16:15:48.345Z,39.02
2018-09-08T16:18:53.290Z,40.53
2018-09-08T16:21:58.188Z,40.35
2018-09-08T16:25:03.160Z,40.65
2018-09-08T16:28:08.137Z,40.71
2018-09-08T16:31:13.056Z,40.88
2018-09-08T16:34:18.046Z,40.38
2018-09-08T16:37:22.992Z,41.29
2018-09-08T16:40:27.911Z,42.87
2018-09-08T16:43:33.280Z,42.82
2018-09-08T16:46:38.233Z,43.30
2018-09-08T16:49:43.125Z,43.60
2018-09-08T16:52:48.137Z,43.68
2018-09-08T16:55:53.062Z,45.17
2018-09-08T16:58:57.976Z,44.54
2018-09-08T17:02:02.931Z,44.80
2018-09-08T17:05:08.066Z,46.41
2018-09-08T17:08:16.246Z,46.56
2018-09-08T17:11:21.180Z,46.83
2018-09-08T17:14:26.125Z,47.93
2018-09-08T17:17:31.040Z,47.22
2018-09-08T17:20:35.949Z,47.38
2018-09-08T17:23:40.869Z,48.27
2018-09-08T17:26:45.785Z,48.30
2018-09-08T17:29:50.742Z,50.00
2018-09-08T17:32:55.671Z,49.06
2018-09-08T17:36:00.556Z,49.73
2018-09-08T17:39:07.549Z,49.77
2018-09-08T17:42:12.505Z,49.98
2018-09-08T17:45:17.414Z,51.25
2018-09-08T17:48:22.329Z,51.83
2018-09-08T17:51:27.291Z,52.18
2018-09-08T17:54:32.168Z,52.30
2018-09-08T17:57:37.173Z,53.09
2018-09-08T18:00:42.063Z,52.40
2018-09-08T18:03:47.735Z,53.43
2018-09-08T18:06:52.664Z,53.05
2018-09-08T18:09:57.593Z,54.36
2018-09-08T18:13:02.534Z,54.15
2018-09-08T18:16:07.457Z,54.29
2018-09-08T18:19:12.406Z,54.41
2018-09-08T18:22:17.354Z,55.10
2018-09-08T18:25:22.289Z,56.08
2018-09-08T18:28:27.213Z,57.16
2018-09-08T18:31:32.169Z,56.93
2018-09-08T18:34:37.084Z,56.75
2018-09-08T18:37:42.007Z,56.36
2018-09-08T18:40:46.931Z,57.62
2018-09-08T18:43:51.860Z,57.57
2018-09-08T18:46:56.785Z,57.39
2018-09-08T18:50:01.725Z,57.85
2018-09-08T18:53:06.912Z,57.22
2018-09-08T18:56:11.850Z,57.93
2018-09-08T18:59:16.782Z,58.34
2018-09-08T19:02:21.725Z,58.82
2018-09-08T19:05:26.677Z,58.33
2018-09-08T19:08:37.312Z,58.47
2018-09-08T19:11:44.266Z,59.02
2018-09-08T19:14:54.941Z,59.85
2018-09-08T19:17:59.909Z,59.13
2018-09-08T19:21:05.127Z,59.72
2018-09-08T19:24:15.938Z,59.08
2018-09-08T19:27:20.834Z,59.44
2018-09-08T19:30:25.769Z,60.71
2018-09-08T19:33:30.715Z,60.72
2018-09-08T19:36:35.638Z,60.88
2018-09-08T19:39:40.561Z,60.54
2018-09-08T19:42:45.585Z,60.85
2018-09-08T19:45:50.584Z,60.93
2018-09-08T19:48:55.544Z,61.71
2018-09-08T19:52:00.471Z,62.46
2018-09-08T19:55:05.454Z,61.79
2018-09-08T19:58:16.092Z,62.97
2018-09-08T20:01:21.038Z,63.12
2018-09-08T20:04:25.965Z,63.44
2018-09-08T20:07:30.934Z,63.93
2018-09-08T20:10:35.864Z,64.88
2018-09-08T20:13:40.880Z,64.56
2018-09-08T20:16:45.753Z,64.81
2018-09-08T20:19:50.748Z,64.86
2018-09-08T20:22:55.633Z,65.02
2018-09-08T20:26:00.599Z,64.43
2018-09-08T20:29:05.580Z,64.55
2018-09-08T20:32:10.501Z,65.28
2018-09-08T20:35:15.449Z,66.44
2018-09-08T20:38:20.395Z,66.44
2018-09-08T20:41:25.340Z,67.17
2018-09-08T20:44:30.595Z,67.36
2018-09-08T20:47:35.526Z,66.10
2018-09-08T20:50:40.448Z,67.30
2018-09-08T20:53:45.400Z,66.91
2018-09-08T20:56:50.347Z,67.51
2018-09-08T20:59:55.298Z,67.75
2018-09-08T21:03:00.231Z,66.99
2018-09-08T21:06:05.168Z,67.84
2018-09-08T21:09:10.101Z,66.64
2018-09-08T21:12:15.037Z,67.96
2018-09-08T21:15:19.972Z,67.87
2018-09-08T21:18:24.993Z,67.34
2018-09-08T21:21:29.930Z,68.19
2018-09-08T21:24:34.882Z,68.29
2018-09-08T21:27:39.838Z,68.00
2018-09-08T21:30:44.761Z,68.85
2018-09-08T21:33:49.702Z,68.56
2018-09-08T21:36:54.640Z,67.78
2018-09-08T21:39:59.574Z,67.26
2018-09-08T21:43:04.744Z,68.67
2018-09-08T21:46:09.706Z,68.97
2018-09-08T21:49:14.634Z,69.03
2018-09-08T21:52:19.585Z,69.33
2018-09-08T21:55:24.534Z,69.08
2018-09-08T22:02:13.421Z,68.92
2018-09-08T22:05:18.374Z,68.42
2018-09-08T22:08:23.292Z,69.17
2018-09-08T22:11:28.235Z,69.54
2018-09-08T22:14:33.168Z,69.53
2018-09-08T22:17:38.097Z,70.29
2018-09-08T22:20:43.025Z,69.09
2018-09-08T22:23:47.969Z,70.08
2018-09-08T22:26:52.893Z,70.64
2018-09-08T22:29:57.800Z,69.90
2018-09-08T22:33:02.705Z,70.09
2018-09-08T22:36:07.664Z,69.91
2018-09-08T22:39:12.597Z,69.90
2018-09-08T22:42:17.537Z,70.33
2018-09-08T22:45:22.452Z,70.42
2018-09-08T22:48:27.413Z,70.45
2018-09-08T22:51:32.465Z,69.93
2018-09-08T22:54:37.397Z,70.34
2018-09-08T22:57:42.338Z,70.71
2018-09-08T23:00:47.284Z,71.00
2018-09-08T23:03:52.221Z,71.41
2018-09-08T23:06:57.164Z,71.23
2018-09-08T23:10:02.134Z,70.34
2018-09-08T23:13:07.067Z,71.04
2018-09-08T23:16:12.025Z,70.70
2018-09-08T23:19:16.957Z,70.36
2018-09-08T23:22:21.900Z,71.01
2018-09-08T23:25:26.829Z,70.83
2018-09-08T23:28:31.781Z,70.70
2018-09-08T23:31:36.716Z,70.71
2018-09-08T23:34:41.640Z,71.74
2018-09-08T23:37:46.588Z,70.67
2018-09-08T23:40:51.517Z,71.74
2018-09-08T23:43:56.439Z,71.21
2018-09-08T23:47:01.382Z,70.79
2018-09-08T23:50:06.349Z,71.07
2018-09-08T23:53:11.289Z,70.83
2018-09-08T23:56:16.282Z,70.88
2018-09-08T23:59:21.223Z,71.19
